sensor_id;sensor_type;location;lat;lon;timestamp;noise_LAeq;noise_LA_min;noise_LA_max;noise_LA01;noise_LA95
66335;Laerm;53138;51.496;6.410;2022-12-07T00:00:04;31.69;29.92;35.56;;
66335;Laerm;53138;51.496;6.410;2022-12-07T00:00:14;31.56;29.88;39.15;;
66335;Laerm;53138;51.496;6.410;2022-12-07T00:00:24;31.75;29.74;40.22;;
66335;Laerm;53138;51.496;6.410;2022-12-07T00:00:35;31.59;29.99;35.06;;
66335;Laerm;53138;51.496;6.410;2022-12-07T00:00:45;31.61;30.07;33.50;;
66335;Laerm;53138;51.496;6.410;2022-12-07T00:00:55;31.33;29.94;36.25;;
66335;Laerm;53138;51.496;6.410;2022-12-07T00:01:23;31.71;30.26;33.53;;
66335;Laerm;53138;51.496;6.410;2022-12-07T00:01:34;33.69;29.97;47.96;;
66335;Laerm;53138;51.496;6.410;2022-12-07T00:01:45;34.41;29.81;52.23;;
66335;Laerm;53138;51.496;6.410;2022-12-07T00:01:56;31.97;30.07;39.82;;
66335;Laerm;53138;51.496;6.410;2022-12-07T00:02:06;32.30;30.46;41.84;;
66335;Laerm;53138;51.496;6.410;2022-12-07T00:02:16;31.34;29.89;33.90;;
66335;Laerm;53138;51.496;6.410;2022-12-07T00:02:26;31.68;29.84;38.64;;
66335;Laerm;53138;51.496;6.410;2022-12-07T00:02:37;31.86;30.05;39.69;;
66335;Laerm;53138;51.496;6.410;2022-12-07T00:02:47;31.69;30.20;38.68;;
66335;Laerm;53138;51.496;6.410;2022-12-07T00:02:57;32.20;30.49;40.69;;
66335;Laerm;53138;51.496;6.410;2022-12-07T00:03:07;32.11;30.35;34.19;;
66335;Laerm;53138;51.496;6.410;2022-12-07T00:03:17;32.26;30.56;39.70;;
66335;Laerm;53138;51.496;6.410;2022-12-07T00:03:28;31.66;30.29;33.07;;
66335;Laerm;53138;51.496;6.410;2022-12-07T00:03:38;32.10;30.47;34.34;;
66335;Laerm;53138;51.496;6.410;2022-12-07T00:03:50;32.48;29.87;42.14;;
66335;Laerm;53138;51.496;6.410;2022-12-07T00:04:02;31.85;30.30;36.01;;
66335;Laerm;53138;51.496;6.410;2022-12-07T00:04:17;32.61;30.69;35.13;;
66335;Laerm;53138;51.496;6.410;2022-12-07T00:04:27;33.37;30.29;48.66;;
66335;Laerm;53138;51.496;6.410;2022-12-07T00:04:37;32.61;30.49;41.06;;
66335;Laerm;53138;51.496;6.410;2022-12-07T00:04:48;32.35;30.61;34.57;;
66335;Laerm;53138;51.496;6.410;2022-12-07T00:04:58;33.57;30.61;47.88;;
66335;Laerm;53138;51.496;6.410;2022-12-07T00:05:09;32.64;30.72;37.39;;
66335;Laerm;53138;51.496;6.410;2022-12-07T00:05:19;32.56;30.92;35.25;;
66335;Laerm;53138;51.496;6.410;2022-12-07T00:05:29;32.54;30.54;36.03;;
66335;Laerm;53138;51.496;6.410;2022-12-07T00:05:39;32.50;30.06;34.60;;
66335;Laerm;53138;51.496;6.410;2022-12-07T00:05:49;32.93;30.83;44.09;;
66335;Laerm;53138;51.496;6.410;2022-12-07T00:06:00;33.08;30.39;42.04;;
66335;Laerm;53138;51.496;6.410;2022-12-07T00:06:11;32.99;31.19;34.96;;
66335;Laerm;53138;51.496;6.410;2022-12-07T00:06:22;33.45;31.31;35.82;;
66335;Laerm;53138;51.496;6.410;2022-12-07T00:06:36;33.08;30.45;39.87;;
66335;Laerm;53138;51.496;6.410;2022-12-07T00:06:50;33.09;31.20;35.41;;
66335;Laerm;53138;51.496;6.410;2022-12-07T00:07:00;32.85;30.65;36.37;;
66335;Laerm;53138;51.496;6.410;2022-12-07T00:07:11;32.96;31.23;34.73;;
66335;Laerm;53138;51.496;6.410;2022-12-07T00:07:21;33.09;30.79;35.43;;
66335;Laerm;53138;51.496;6.410;2022-12-07T00:07:31;32.50;30.63;34.80;;
66335;Laerm;53138;51.496;6.410;2022-12-07T00:07:42;32.95;30.73;43.39;;
66335;Laerm;53138;51.496;6.410;2022-12-07T00:07:52;32.79;30.47;34.99;;
66335;Laerm;53138;51.496;6.410;2022-12-07T00:08:02;33.12;30.57;46.02;;
66335;Laerm;53138;51.496;6.410;2022-12-07T00:08:12;31.28;29.82;34.64;;
66335;Laerm;53138;51.496;6.410;2022-12-07T00:08:22;32.20;29.48;47.51;;
66335;Laerm;53138;51.496;6.410;2022-12-07T00:08:33;31.80;30.27;36.57;;
66335;Laerm;53138;51.496;6.410;2022-12-07T00:08:43;31.76;30.37;33.62;;
66335;Laerm;53138;51.496;6.410;2022-12-07T00:08:54;38.44;30.65;59.12;;
66335;Laerm;53138;51.496;6.410;2022-12-07T00:09:04;31.81;30.11;33.34;;
66335;Laerm;53138;51.496;6.410;2022-12-07T00:09:15;31.76;30.12;33.47;;
66335;Laerm;53138;51.496;6.410;2022-12-07T00:09:26;31.76;30.43;34.25;;
66335;Laerm;53138;51.496;6.410;2022-12-07T00:09:36;32.15;30.31;33.74;;
66335;Laerm;53138;51.496;6.410;2022-12-07T00:09:46;32.17;30.60;37.78;;
66335;Laerm;53138;51.496;6.410;2022-12-07T00:09:56;33.24;30.81;37.27;;
66335;Laerm;53138;51.496;6.410;2022-12-07T00:10:07;33.29;31.21;37.56;;
66335;Laerm;53138;51.496;6.410;2022-12-07T00:10:17;34.62;30.51;46.95;;
66335;Laerm;53138;51.496;6.410;2022-12-07T00:10:27;32.46;30.85;34.73;;
66335;Laerm;53138;51.496;6.410;2022-12-07T00:10:37;32.19;30.84;33.74;;
66335;Laerm;53138;51.496;6.410;2022-12-07T00:10:47;32.47;30.71;34.22;;
66335;Laerm;53138;51.496;6.410;2022-12-07T00:11:04;32.44;30.91;38.84;;
66335;Laerm;53138;51.496;6.410;2022-12-07T00:11:16;33.76;30.94;49.09;;
66335;Laerm;53138;51.496;6.410;2022-12-07T00:11:27;34.30;31.70;38.79;;
66335;Laerm;53138;51.496;6.410;2022-12-07T00:11:37;37.64;34.42;41.85;;
66335;Laerm;53138;51.496;6.410;2022-12-07T00:11:49;47.29;36.56;54.74;;
66335;Laerm;53138;51.496;6.410;2022-12-07T00:11:59;47.54;40.59;53.97;;
66335;Laerm;53138;51.496;6.410;2022-12-07T00:12:09;38.47;34.30;43.07;;
66335;Laerm;53138;51.496;6.410;2022-12-07T00:12:19;43.36;35.88;52.64;;
66335;Laerm;53138;51.496;6.410;2022-12-07T00:12:30;39.98;36.24;44.96;;
66335;Laerm;53138;51.496;6.410;2022-12-07T00:12:40;41.05;32.37;47.32;;
66335;Laerm;53138;51.496;6.410;2022-12-07T00:12:50;32.36;30.54;35.65;;
66335;Laerm;53138;51.496;6.410;2022-12-07T00:13:00;31.94;30.37;40.60;;
66335;Laerm;53138;51.496;6.410;2022-12-07T00:13:10;32.16;30.25;39.12;;
66335;Laerm;53138;51.496;6.410;2022-12-07T00:13:21;33.33;30.59;46.39;;
66335;Laerm;53138;51.496;6.410;2022-12-07T00:13:31;34.96;31.76;39.18;;
66335;Laerm;53138;51.496;6.410;2022-12-07T00:13:42;33.27;31.09;42.95;;
66335;Laerm;53138;51.496;6.410;2022-12-07T00:13:56;31.99;30.59;34.82;;
66335;Laerm;53138;51.496;6.410;2022-12-07T00:14:08;31.63;30.15;38.05;;
66335;Laerm;53138;51.496;6.410;2022-12-07T00:14:20;32.72;30.45;45.49;;
66335;Laerm;53138;51.496;6.410;2022-12-07T00:14:30;33.14;30.13;48.64;;
66335;Laerm;53138;51.496;6.410;2022-12-07T00:14:40;31.73;30.25;34.31;;
66335;Laerm;53138;51.496;6.410;2022-12-07T00:14:50;31.83;30.15;34.74;;
66335;Laerm;53138;51.496;6.410;2022-12-07T00:15:01;40.27;32.45;46.98;;
66335;Laerm;53138;51.496;6.410;2022-12-07T00:15:11;38.30;34.13;44.74;;
66335;Laerm;53138;51.496;6.410;2022-12-07T00:15:21;41.21;33.02;47.97;;
66335;Laerm;53138;51.496;6.410;2022-12-07T00:15:33;34.37;32.62;36.53;;
66335;Laerm;53138;51.496;6.410;2022-12-07T00:15:43;35.83;32.01;42.77;;
66335;Laerm;53138;51.496;6.410;2022-12-07T00:15:53;40.25;34.66;47.88;;
66335;Laerm;53138;51.496;6.410;2022-12-07T00:16:04;41.21;35.83;46.82;;
66335;Laerm;53138;51.496;6.410;2022-12-07T00:16:16;37.17;31.34;44.63;;
66335;Laerm;53138;51.496;6.410;2022-12-07T00:16:29;32.14;30.37;35.62;;
66335;Laerm;53138;51.496;6.410;2022-12-07T00:16:40;31.81;30.26;33.47;;
66335;Laerm;53138;51.496;6.410;2022-12-07T00:16:51;32.18;30.34;43.17;;
66335;Laerm;53138;51.496;6.410;2022-12-07T00:17:01;32.11;30.67;38.86;;
66335;Laerm;53138;51.496;6.410;2022-12-07T00:17:12;32.01;30.37;38.34;;
66335;Laerm;53138;51.496;6.410;2022-12-07T00:17:22;32.73;30.59;43.55;;
66335;Laerm;53138;51.496;6.410;2022-12-07T00:17:32;31.83;30.20;33.57;;
66335;Laerm;53138;51.496;6.410;2022-12-07T00:17:43;36.91;30.56;57.52;;
66335;Laerm;53138;51.496;6.410;2022-12-07T00:17:53;32.22;30.48;39.39;;
66335;Laerm;53138;51.496;6.410;2022-12-07T00:18:04;32.19;30.12;34.29;;
66335;Laerm;53138;51.496;6.410;2022-12-07T00:18:14;32.43;30.26;43.94;;
66335;Laerm;53138;51.496;6.410;2022-12-07T00:18:24;31.95;30.58;33.59;;
66335;Laerm;53138;51.496;6.410;2022-12-07T00:18:34;35.99;30.66;54.24;;
66335;Laerm;53138;51.496;6.410;2022-12-07T00:18:45;33.08;30.28;46.87;;
66335;Laerm;53138;51.496;6.410;2022-12-07T00:18:55;33.85;30.58;50.84;;
66335;Laerm;53138;51.496;6.410;2022-12-07T00:19:06;35.39;30.65;51.71;;
66335;Laerm;53138;51.496;6.410;2022-12-07T00:19:16;31.99;30.14;35.36;;
66335;Laerm;53138;51.496;6.410;2022-12-07T00:19:26;35.99;30.61;56.52;;
66335;Laerm;53138;51.496;6.410;2022-12-07T00:19:37;31.78;30.45;33.45;;
66335;Laerm;53138;51.496;6.410;2022-12-07T00:19:47;40.41;30.44;56.88;;
66335;Laerm;53138;51.496;6.410;2022-12-07T00:19:57;38.51;31.16;54.51;;
66335;Laerm;53138;51.496;6.410;2022-12-07T00:20:07;36.15;30.59;53.35;;
66335;Laerm;53138;51.496;6.410;2022-12-07T00:20:17;37.77;30.78;54.78;;
66335;Laerm;53138;51.496;6.410;2022-12-07T00:20:28;33.15;30.91;47.22;;
66335;Laerm;53138;51.496;6.410;2022-12-07T00:20:38;32.72;31.03;35.73;;
66335;Laerm;53138;51.496;6.410;2022-12-07T00:20:48;33.94;30.84;50.46;;
66335;Laerm;53138;51.496;6.410;2022-12-07T00:21:06;32.90;30.46;39.83;;
66335;Laerm;53138;51.496;6.410;2022-12-07T00:21:18;42.97;30.07;57.48;;
66335;Laerm;53138;51.496;6.410;2022-12-07T00:21:30;32.26;30.30;39.70;;
66335;Laerm;53138;51.496;6.410;2022-12-07T00:21:41;32.48;30.73;34.88;;
66335;Laerm;53138;51.496;6.410;2022-12-07T00:21:51;33.73;30.76;45.52;;
66335;Laerm;53138;51.496;6.410;2022-12-07T00:22:01;32.69;30.98;35.61;;
66335;Laerm;53138;51.496;6.410;2022-12-07T00:22:12;32.74;30.87;34.81;;
66335;Laerm;53138;51.496;6.410;2022-12-07T00:22:22;32.49;30.73;34.71;;
66335;Laerm;53138;51.496;6.410;2022-12-07T00:22:32;33.09;30.93;42.87;;
66335;Laerm;53138;51.496;6.410;2022-12-07T00:22:42;33.47;30.96;42.73;;
66335;Laerm;53138;51.496;6.410;2022-12-07T00:22:52;32.79;30.91;35.37;;
66335;Laerm;53138;51.496;6.410;2022-12-07T00:23:02;35.06;31.10;51.52;;
66335;Laerm;53138;51.496;6.410;2022-12-07T00:23:13;34.53;30.87;49.00;;
66335;Laerm;53138;51.496;6.410;2022-12-07T00:23:23;34.26;31.42;45.10;;
66335;Laerm;53138;51.496;6.410;2022-12-07T00:23:33;33.85;31.61;35.98;;
66335;Laerm;53138;51.496;6.410;2022-12-07T00:23:44;33.54;31.62;35.61;;
66335;Laerm;53138;51.496;6.410;2022-12-07T00:23:55;33.59;31.91;35.58;;
66335;Laerm;53138;51.496;6.410;2022-12-07T00:24:06;34.31;32.24;36.94;;
66335;Laerm;53138;51.496;6.410;2022-12-07T00:24:16;36.19;33.15;40.03;;
66335;Laerm;53138;51.496;6.410;2022-12-07T00:24:26;36.68;33.71;41.22;;
66335;Laerm;53138;51.496;6.410;2022-12-07T00:24:36;39.98;35.84;44.27;;
66335;Laerm;53138;51.496;6.410;2022-12-07T00:24:46;42.78;36.66;48.39;;
66335;Laerm;53138;51.496;6.410;2022-12-07T00:24:57;39.16;33.38;46.48;;
66335;Laerm;53138;51.496;6.410;2022-12-07T00:25:07;34.48;32.09;42.87;;
66335;Laerm;53138;51.496;6.410;2022-12-07T00:25:17;33.71;31.38;40.04;;
66335;Laerm;53138;51.496;6.410;2022-12-07T00:25:27;35.09;31.52;38.93;;
66335;Laerm;53138;51.496;6.410;2022-12-07T00:25:37;39.58;34.70;44.24;;
66335;Laerm;53138;51.496;6.410;2022-12-07T00:25:48;35.54;31.87;42.00;;
66335;Laerm;53138;51.496;6.410;2022-12-07T00:26:06;39.47;33.38;51.24;;
66335;Laerm;53138;51.496;6.410;2022-12-07T00:26:23;32.48;30.18;39.35;;
66335;Laerm;53138;51.496;6.410;2022-12-07T00:26:34;31.62;29.71;40.56;;
66335;Laerm;53138;51.496;6.410;2022-12-07T00:26:45;31.23;29.59;32.53;;
66335;Laerm;53138;51.496;6.410;2022-12-07T00:26:55;31.85;30.09;45.21;;
66335;Laerm;53138;51.496;6.410;2022-12-07T00:27:05;31.59;29.60;41.53;;
66335;Laerm;53138;51.496;6.410;2022-12-07T00:27:15;31.47;29.92;35.32;;
66335;Laerm;53138;51.496;6.410;2022-12-07T00:27:26;31.73;29.67;39.52;;
66335;Laerm;53138;51.496;6.410;2022-12-07T00:27:37;30.66;29.39;32.65;;
66335;Laerm;53138;51.496;6.410;2022-12-07T00:27:47;30.69;29.50;35.02;;
66335;Laerm;53138;51.496;6.410;2022-12-07T00:27:57;30.86;29.39;34.04;;
66335;Laerm;53138;51.496;6.410;2022-12-07T00:28:07;31.23;29.42;41.06;;
66335;Laerm;53138;51.496;6.410;2022-12-07T00:28:19;33.70;29.64;53.78;;
66335;Laerm;53138;51.496;6.410;2022-12-07T00:28:29;31.24;29.59;40.27;;
66335;Laerm;53138;51.496;6.410;2022-12-07T00:28:40;31.31;30.00;36.12;;
66335;Laerm;53138;51.496;6.410;2022-12-07T00:28:51;32.57;29.57;49.34;;
66335;Laerm;53138;51.496;6.410;2022-12-07T00:29:03;36.37;29.37;51.69;;
66335;Laerm;53138;51.496;6.410;2022-12-07T00:29:20;35.01;29.24;55.07;;
66335;Laerm;53138;51.496;6.410;2022-12-07T00:29:31;30.71;29.32;33.98;;
66335;Laerm;53138;51.496;6.410;2022-12-07T00:29:41;30.94;29.47;39.35;;
66335;Laerm;53138;51.496;6.410;2022-12-07T00:29:51;30.69;29.17;32.71;;
66335;Laerm;53138;51.496;6.410;2022-12-07T00:30:02;31.14;29.20;40.84;;
66335;Laerm;53138;51.496;6.410;2022-12-07T00:30:12;30.87;29.46;35.41;;
66335;Laerm;53138;51.496;6.410;2022-12-07T00:30:22;31.00;29.69;33.23;;
66335;Laerm;53138;51.496;6.410;2022-12-07T00:30:33;31.00;29.73;32.41;;
66335;Laerm;53138;51.496;6.410;2022-12-07T00:30:43;32.40;29.91;45.11;;
66335;Laerm;53138;51.496;6.410;2022-12-07T00:30:59;30.98;29.67;39.02;;
66335;Laerm;53138;51.496;6.410;2022-12-07T00:31:10;34.13;29.54;49.88;;
66335;Laerm;53138;51.496;6.410;2022-12-07T00:31:21;32.43;29.78;47.67;;
66335;Laerm;53138;51.496;6.410;2022-12-07T00:31:33;30.92;29.43;32.61;;
66335;Laerm;53138;51.496;6.410;2022-12-07T00:31:45;30.92;29.48;34.05;;
66335;Laerm;53138;51.496;6.410;2022-12-07T00:31:55;31.36;29.53;44.64;;
66335;Laerm;53138;51.496;6.410;2022-12-07T00:32:05;31.00;29.41;32.47;;
66335;Laerm;53138;51.496;6.410;2022-12-07T00:32:15;31.31;29.63;40.07;;
66335;Laerm;53138;51.496;6.410;2022-12-07T00:32:26;30.90;29.68;33.38;;
66335;Laerm;53138;51.496;6.410;2022-12-07T00:32:36;30.96;29.48;32.92;;
66335;Laerm;53138;51.496;6.410;2022-12-07T00:32:46;31.21;29.68;35.92;;
66335;Laerm;53138;51.496;6.410;2022-12-07T00:32:56;31.03;29.72;33.67;;
66335;Laerm;53138;51.496;6.410;2022-12-07T00:33:06;30.92;29.59;36.34;;
66335;Laerm;53138;51.496;6.410;2022-12-07T00:33:17;31.96;29.64;44.71;;
66335;Laerm;53138;51.496;6.410;2022-12-07T00:33:27;31.76;29.85;41.47;;
66335;Laerm;53138;51.496;6.410;2022-12-07T00:33:38;34.92;30.06;50.89;;
66335;Laerm;53138;51.496;6.410;2022-12-07T00:33:49;32.11;29.84;45.28;;
66335;Laerm;53138;51.496;6.410;2022-12-07T00:33:59;36.54;30.01;55.59;;
66335;Laerm;53138;51.496;6.410;2022-12-07T00:34:13;31.14;29.48;32.72;;
66335;Laerm;53138;51.496;6.410;2022-12-07T00:34:24;30.90;29.47;32.53;;
66335;Laerm;53138;51.496;6.410;2022-12-07T00:34:34;31.42;29.49;34.89;;
66335;Laerm;53138;51.496;6.410;2022-12-07T00:34:44;31.25;29.21;33.46;;
66335;Laerm;53138;51.496;6.410;2022-12-07T00:34:54;31.13;29.54;38.94;;
66335;Laerm;53138;51.496;6.410;2022-12-07T00:35:05;30.93;29.52;32.83;;
66335;Laerm;53138;51.496;6.410;2022-12-07T00:35:15;31.05;29.79;33.11;;
66335;Laerm;53138;51.496;6.410;2022-12-07T00:35:25;31.09;29.77;32.57;;
66335;Laerm;53138;51.496;6.410;2022-12-07T00:35:35;30.96;29.37;32.59;;
66335;Laerm;53138;51.496;6.410;2022-12-07T00:35:45;30.86;29.75;32.54;;
66335;Laerm;53138;51.496;6.410;2022-12-07T00:35:56;30.88;29.71;32.74;;
66335;Laerm;53138;51.496;6.410;2022-12-07T00:36:08;31.56;29.33;42.31;;
66335;Laerm;53138;51.496;6.410;2022-12-07T00:36:20;33.07;29.67;47.76;;
66335;Laerm;53138;51.496;6.410;2022-12-07T00:36:30;35.86;29.88;54.00;;
66335;Laerm;53138;51.496;6.410;2022-12-07T00:36:40;31.49;30.16;33.38;;
66335;Laerm;53138;51.496;6.410;2022-12-07T00:36:51;31.51;29.83;33.23;;
66335;Laerm;53138;51.496;6.410;2022-12-07T00:37:01;31.85;30.29;33.68;;
66335;Laerm;53138;51.496;6.410;2022-12-07T00:37:11;31.67;29.75;33.48;;
66335;Laerm;53138;51.496;6.410;2022-12-07T00:37:22;31.48;29.73;34.57;;
66335;Laerm;53138;51.496;6.410;2022-12-07T00:37:33;31.19;29.39;39.73;;
66335;Laerm;53138;51.496;6.410;2022-12-07T00:37:43;30.86;29.51;34.14;;
66335;Laerm;53138;51.496;6.410;2022-12-07T00:37:53;30.63;29.22;33.00;;
66335;Laerm;53138;51.496;6.410;2022-12-07T00:38:03;30.56;29.16;34.99;;
66335;Laerm;53138;51.496;6.410;2022-12-07T00:38:13;31.00;29.26;38.67;;
66335;Laerm;53138;51.496;6.410;2022-12-07T00:38:24;30.70;29.36;32.45;;
66335;Laerm;53138;51.496;6.410;2022-12-07T00:38:34;30.81;29.44;32.26;;
66335;Laerm;53138;51.496;6.410;2022-12-07T00:38:45;30.97;29.76;32.55;;
66335;Laerm;53138;51.496;6.410;2022-12-07T00:38:57;30.96;29.52;33.27;;
66335;Laerm;53138;51.496;6.410;2022-12-07T00:39:08;31.05;29.16;33.06;;
66335;Laerm;53138;51.496;6.410;2022-12-07T00:39:18;31.41;29.26;33.90;;
66335;Laerm;53138;51.496;6.410;2022-12-07T00:39:28;31.72;29.87;33.96;;
66335;Laerm;53138;51.496;6.410;2022-12-07T00:39:39;31.51;29.64;34.00;;
66335;Laerm;53138;51.496;6.410;2022-12-07T00:39:49;31.71;29.96;34.91;;
66335;Laerm;53138;51.496;6.410;2022-12-07T00:39:59;31.80;30.04;34.18;;
66335;Laerm;53138;51.496;6.410;2022-12-07T00:40:09;31.82;30.30;34.19;;
66335;Laerm;53138;51.496;6.410;2022-12-07T00:40:20;31.89;30.36;34.22;;
66335;Laerm;53138;51.496;6.410;2022-12-07T00:40:30;31.90;30.08;33.89;;
66335;Laerm;53138;51.496;6.410;2022-12-07T00:40:40;31.93;29.76;34.36;;
66335;Laerm;53138;51.496;6.410;2022-12-07T00:40:54;32.84;30.22;49.92;;
66335;Laerm;53138;51.496;6.410;2022-12-07T00:41:10;32.00;29.91;34.05;;
66335;Laerm;53138;51.496;6.410;2022-12-07T00:41:21;32.09;30.04;34.76;;
66335;Laerm;53138;51.496;6.410;2022-12-07T00:41:32;32.39;30.07;34.51;;
66335;Laerm;53138;51.496;6.410;2022-12-07T00:41:42;32.47;30.44;34.57;;
66335;Laerm;53138;51.496;6.410;2022-12-07T00:41:52;32.12;29.91;34.37;;
66335;Laerm;53138;51.496;6.410;2022-12-07T00:42:02;32.04;30.19;34.29;;
66335;Laerm;53138;51.496;6.410;2022-12-07T00:42:13;32.29;30.45;35.72;;
66335;Laerm;53138;51.496;6.410;2022-12-07T00:42:23;32.32;30.55;41.89;;
66335;Laerm;53138;51.496;6.410;2022-12-07T00:42:33;32.46;30.77;34.97;;
66335;Laerm;53138;51.496;6.410;2022-12-07T00:42:43;32.47;30.35;34.77;;
66335;Laerm;53138;51.496;6.410;2022-12-07T00:42:53;32.75;30.89;35.72;;
66335;Laerm;53138;51.496;6.410;2022-12-07T00:43:04;33.14;30.98;43.49;;
66335;Laerm;53138;51.496;6.410;2022-12-07T00:43:14;32.15;29.93;34.42;;
66335;Laerm;53138;51.496;6.410;2022-12-07T00:43:24;31.15;29.40;33.14;;
66335;Laerm;53138;51.496;6.410;2022-12-07T00:43:34;31.54;29.76;35.19;;
66335;Laerm;53138;51.496;6.410;2022-12-07T00:43:45;31.14;29.91;32.38;;
66335;Laerm;53138;51.496;6.410;2022-12-07T00:43:55;30.96;29.38;37.18;;
66335;Laerm;53138;51.496;6.410;2022-12-07T00:44:06;30.77;29.68;33.68;;
66335;Laerm;53138;51.496;6.410;2022-12-07T00:44:16;30.70;29.51;31.86;;
66335;Laerm;53138;51.496;6.410;2022-12-07T00:44:26;30.66;29.21;32.16;;
66335;Laerm;53138;51.496;6.410;2022-12-07T00:44:36;30.60;29.08;32.16;;
66335;Laerm;53138;51.496;6.410;2022-12-07T00:44:46;30.60;29.37;32.02;;
66335;Laerm;53138;51.496;6.410;2022-12-07T00:44:56;30.57;29.22;31.96;;
66335;Laerm;53138;51.496;6.410;2022-12-07T00:45:07;30.52;29.18;31.89;;
66335;Laerm;53138;51.496;6.410;2022-12-07T00:45:17;30.74;29.37;33.04;;
66335;Laerm;53138;51.496;6.410;2022-12-07T00:45:27;30.74;29.25;32.72;;
66335;Laerm;53138;51.496;6.410;2022-12-07T00:45:38;30.69;29.15;37.97;;
66335;Laerm;53138;51.496;6.410;2022-12-07T00:45:48;30.64;29.46;33.14;;
66335;Laerm;53138;51.496;6.410;2022-12-07T00:45:58;30.93;29.66;35.48;;
66335;Laerm;53138;51.496;6.410;2022-12-07T00:46:08;30.97;29.82;33.35;;
66335;Laerm;53138;51.496;6.410;2022-12-07T00:46:19;30.97;29.85;32.38;;
66335;Laerm;53138;51.496;6.410;2022-12-07T00:46:29;31.08;29.90;32.73;;
66335;Laerm;53138;51.496;6.410;2022-12-07T00:46:40;30.95;29.57;32.36;;
66335;Laerm;53138;51.496;6.410;2022-12-07T00:46:50;31.40;29.52;41.98;;
66335;Laerm;53138;51.496;6.410;2022-12-07T00:47:00;31.38;29.94;33.34;;
66335;Laerm;53138;51.496;6.410;2022-12-07T00:47:10;31.47;30.14;33.76;;
66335;Laerm;53138;51.496;6.410;2022-12-07T00:47:21;32.88;30.13;45.85;;
66335;Laerm;53138;51.496;6.410;2022-12-07T00:47:31;31.82;30.05;34.09;;
66335;Laerm;53138;51.496;6.410;2022-12-07T00:47:41;33.20;30.37;44.67;;
66335;Laerm;53138;51.496;6.410;2022-12-07T00:47:51;32.69;31.09;34.94;;
66335;Laerm;53138;51.496;6.410;2022-12-07T00:48:02;33.19;31.50;37.98;;
66335;Laerm;53138;51.496;6.410;2022-12-07T00:48:12;32.77;30.71;35.84;;
66335;Laerm;53138;51.496;6.410;2022-12-07T00:48:22;33.19;31.01;41.30;;
66335;Laerm;53138;51.496;6.410;2022-12-07T00:48:33;34.23;31.74;38.58;;
66335;Laerm;53138;51.496;6.410;2022-12-07T00:48:43;38.04;34.30;42.61;;
66335;Laerm;53138;51.496;6.410;2022-12-07T00:48:54;43.87;38.12;48.70;;
66335;Laerm;53138;51.496;6.410;2022-12-07T00:49:04;42.75;38.43;47.42;;
66335;Laerm;53138;51.496;6.410;2022-12-07T00:49:14;47.52;40.89;51.63;;
66335;Laerm;53138;51.496;6.410;2022-12-07T00:49:24;39.71;33.43;45.92;;
66335;Laerm;53138;51.496;6.410;2022-12-07T00:49:35;33.11;30.90;36.61;;
66335;Laerm;53138;51.496;6.410;2022-12-07T00:49:45;32.12;30.43;35.06;;
66335;Laerm;53138;51.496;6.410;2022-12-07T00:49:55;31.48;30.00;36.03;;
66335;Laerm;53138;51.496;6.410;2022-12-07T00:50:05;31.82;29.26;43.13;;
66335;Laerm;53138;51.496;6.410;2022-12-07T00:50:16;31.49;29.87;36.57;;
66335;Laerm;53138;51.496;6.410;2022-12-07T00:50:26;31.11;29.84;37.08;;
66335;Laerm;53138;51.496;6.410;2022-12-07T00:50:36;31.36;29.76;42.23;;
66335;Laerm;53138;51.496;6.410;2022-12-07T00:50:46;31.23;29.58;38.78;;
66335;Laerm;53138;51.496;6.410;2022-12-07T00:50:57;31.17;29.63;39.00;;
66335;Laerm;53138;51.496;6.410;2022-12-07T00:51:07;31.01;29.31;34.24;;
66335;Laerm;53138;51.496;6.410;2022-12-07T00:51:20;31.96;29.71;47.26;;
66335;Laerm;53138;51.496;6.410;2022-12-07T00:51:30;31.16;29.54;34.11;;
66335;Laerm;53138;51.496;6.410;2022-12-07T00:51:41;31.00;29.83;32.30;;
66335;Laerm;53138;51.496;6.410;2022-12-07T00:51:51;30.81;29.70;33.35;;
66335;Laerm;53138;51.496;6.410;2022-12-07T00:52:01;30.68;29.22;32.28;;
66335;Laerm;53138;51.496;6.410;2022-12-07T00:52:11;31.06;29.29;35.67;;
66335;Laerm;53138;51.496;6.410;2022-12-07T00:52:22;30.90;29.47;38.29;;
66335;Laerm;53138;51.496;6.410;2022-12-07T00:52:32;31.88;29.84;34.32;;
66335;Laerm;53138;51.496;6.410;2022-12-07T00:52:42;32.37;29.78;48.37;;
66335;Laerm;53138;51.496;6.410;2022-12-07T00:52:52;39.91;29.79;56.87;;
66335;Laerm;53138;51.496;6.410;2022-12-07T00:53:02;41.01;29.92;55.80;;
66335;Laerm;53138;51.496;6.410;2022-12-07T00:53:13;32.17;29.72;39.89;;
66335;Laerm;53138;51.496;6.410;2022-12-07T00:53:23;34.02;29.73;49.08;;
66335;Laerm;53138;51.496;6.410;2022-12-07T00:53:34;32.29;29.83;46.90;;
66335;Laerm;53138;51.496;6.410;2022-12-07T00:53:44;31.34;29.67;37.11;;
66335;Laerm;53138;51.496;6.410;2022-12-07T00:53:54;31.13;29.77;33.99;;
66335;Laerm;53138;51.496;6.410;2022-12-07T00:54:04;33.66;29.73;50.46;;
66335;Laerm;53138;51.496;6.410;2022-12-07T00:54:15;31.24;29.56;39.74;;
66335;Laerm;53138;51.496;6.410;2022-12-07T00:54:25;31.44;29.37;41.78;;
66335;Laerm;53138;51.496;6.410;2022-12-07T00:54:35;35.97;29.64;54.59;;
66335;Laerm;53138;51.496;6.410;2022-12-07T00:54:45;31.06;29.90;32.72;;
66335;Laerm;53138;51.496;6.410;2022-12-07T00:54:55;32.17;29.55;46.12;;
66335;Laerm;53138;51.496;6.410;2022-12-07T00:55:06;31.24;29.63;33.48;;
66335;Laerm;53138;51.496;6.410;2022-12-07T00:55:16;30.99;29.69;34.21;;
66335;Laerm;53138;51.496;6.410;2022-12-07T00:55:26;31.50;28.95;42.04;;
66335;Laerm;53138;51.496;6.410;2022-12-07T00:55:36;31.66;29.01;42.66;;
66335;Laerm;53138;51.496;6.410;2022-12-07T00:55:47;31.15;29.49;34.89;;
66335;Laerm;53138;51.496;6.410;2022-12-07T00:55:57;31.18;29.94;36.10;;
66335;Laerm;53138;51.496;6.410;2022-12-07T00:56:08;31.01;29.64;33.45;;
66335;Laerm;53138;51.496;6.410;2022-12-07T00:56:23;30.90;29.56;32.55;;
66335;Laerm;53138;51.496;6.410;2022-12-07T00:56:33;31.37;29.44;41.00;;
66335;Laerm;53138;51.496;6.410;2022-12-07T00:56:43;31.02;29.46;32.79;;
66335;Laerm;53138;51.496;6.410;2022-12-07T00:56:53;31.86;29.71;34.71;;
66335;Laerm;53138;51.496;6.410;2022-12-07T00:57:04;32.24;30.29;34.78;;
66335;Laerm;53138;51.496;6.410;2022-12-07T00:57:14;33.75;30.02;48.10;;
66335;Laerm;53138;51.496;6.410;2022-12-07T00:57:24;32.29;30.54;34.61;;
66335;Laerm;53138;51.496;6.410;2022-12-07T00:57:34;32.29;30.41;35.33;;
66335;Laerm;53138;51.496;6.410;2022-12-07T00:57:44;32.36;30.36;35.13;;
66335;Laerm;53138;51.496;6.410;2022-12-07T00:57:54;32.37;30.63;34.95;;
66335;Laerm;53138;51.496;6.410;2022-12-07T00:58:05;32.26;29.97;34.36;;
66335;Laerm;53138;51.496;6.410;2022-12-07T00:58:15;32.28;30.57;37.69;;
66335;Laerm;53138;51.496;6.410;2022-12-07T00:58:25;32.77;30.44;41.09;;
66335;Laerm;53138;51.496;6.410;2022-12-07T00:58:35;32.36;30.54;34.52;;
66335;Laerm;53138;51.496;6.410;2022-12-07T00:58:55;32.71;31.00;37.31;;
66335;Laerm;53138;51.496;6.410;2022-12-07T00:59:06;33.10;30.64;47.76;;
66335;Laerm;53138;51.496;6.410;2022-12-07T00:59:16;32.65;30.61;36.18;;
66335;Laerm;53138;51.496;6.410;2022-12-07T00:59:26;32.63;31.14;34.50;;
66335;Laerm;53138;51.496;6.410;2022-12-07T00:59:36;33.87;30.63;47.51;;
66335;Laerm;53138;51.496;6.410;2022-12-07T00:59:47;33.72;30.61;43.49;;
66335;Laerm;53138;51.496;6.410;2022-12-07T00:59:58;32.93;30.91;35.80;;